sensor_id;sensor_type;location;lat;lon;timestamp;pressure;altitude;pressure_sealevel;temperature;humidity
22311;BME280;11323;49.610;11.016;2023-02-28T00:02:45;99058.72;;;12.42;66.82
22311;BME280;11323;49.610;11.016;2023-02-28T00:07:46;99046.59;;;12.31;67.45
22311;BME280;11323;49.610;11.016;2023-02-28T00:12:47;99048.22;;;12.23;67.28
22311;BME280;11323;49.610;11.016;2023-02-28T00:17:48;99044.47;;;12.15;67.61
22311;BME280;11323;49.610;11.016;2023-02-28T00:22:51;99044.03;;;12.10;67.79
22311;BME280;11323;49.610;11.016;2023-02-28T00:27:52;99049.50;;;12.07;67.72
22311;BME280;11323;49.610;11.016;2023-02-28T00:32:52;99047.44;;;12.01;67.81
22311;BME280;11323;49.610;11.016;2023-02-28T00:37:53;99052.53;;;12.02;67.68
22311;BME280;11323;49.610;11.016;2023-02-28T00:42:53;99047.69;;;11.98;67.76
22311;BME280;11323;49.610;11.016;2023-02-28T00:47:53;99049.56;;;11.96;67.78
22311;BME280;11323;49.610;11.016;2023-02-28T00:52:54;99045.59;;;11.92;68.13
22311;BME280;11323;49.610;11.016;2023-02-28T00:57:54;99052.47;;;11.93;68.00
22311;BME280;11323;49.610;11.016;2023-02-28T01:02:55;99034.44;;;11.89;67.89
22311;BME280;11323;49.610;11.016;2023-02-28T01:07:56;99043.22;;;11.88;67.99
22311;BME280;11323;49.610;11.016;2023-02-28T01:12:57;99040.31;;;11.82;67.75
22311;BME280;11323;49.610;11.016;2023-02-28T01:17:58;99027.09;;;11.83;68.07
22311;BME280;11323;49.610;11.016;2023-02-28T01:22:58;99032.31;;;11.83;67.79
22311;BME280;11323;49.610;11.016;2023-02-28T01:27:59;99013.63;;;11.78;67.70
22311;BME280;11323;49.610;11.016;2023-02-28T01:33:01;99022.72;;;11.84;67.81
22311;BME280;11323;49.610;11.016;2023-02-28T01:38:02;99026.16;;;11.84;67.91
22311;BME280;11323;49.610;11.016;2023-02-28T01:43:02;99019.97;;;11.85;67.63
22311;BME280;11323;49.610;11.016;2023-02-28T01:48:07;99016.78;;;11.82;67.96
22311;BME280;11323;49.610;11.016;2023-02-28T01:53:14;99015.13;;;11.81;67.44
22311;BME280;11323;49.610;11.016;2023-02-28T01:58:16;99017.59;;;11.82;67.46
22311;BME280;11323;49.610;11.016;2023-02-28T02:03:18;99003.19;;;11.78;67.59
22311;BME280;11323;49.610;11.016;2023-02-28T02:08:25;99004.84;;;11.79;67.47
22311;BME280;11323;49.610;11.016;2023-02-28T02:13:37;99008.50;;;11.77;67.60
22311;BME280;11323;49.610;11.016;2023-02-28T02:18:51;99001.53;;;11.77;67.65
22311;BME280;11323;49.610;11.016;2023-02-28T02:24:33;98990.75;;;11.70;67.64
22311;BME280;11323;49.610;11.016;2023-02-28T02:29:42;98986.09;;;11.74;67.62
22311;BME280;11323;49.610;11.016;2023-02-28T02:34:54;98984.72;;;11.70;67.71
22311;BME280;11323;49.610;11.016;2023-02-28T02:40:17;98990.75;;;11.70;67.61
22311;BME280;11323;49.610;11.016;2023-02-28T02:50:41;98991.03;;;11.67;67.56
22311;BME280;11323;49.610;11.016;2023-02-28T02:55:45;98981.41;;;11.68;67.42
22311;BME280;11323;49.610;11.016;2023-02-28T03:00:51;98975.25;;;11.69;67.88
22311;BME280;11323;49.610;11.016;2023-02-28T03:05:53;98991.16;;;11.66;67.37
22311;BME280;11323;49.610;11.016;2023-02-28T03:11:02;98998.03;;;11.67;67.40
22311;BME280;11323;49.610;11.016;2023-02-28T03:26:23;99001.16;;;11.61;67.51
22311;BME280;11323;49.610;11.016;2023-02-28T03:31:27;99000.47;;;11.58;67.60
22311;BME280;11323;49.610;11.016;2023-02-28T03:36:35;99006.66;;;11.57;67.71
22311;BME280;11323;49.610;11.016;2023-02-28T03:41:57;99003.34;;;11.55;67.68
22311;BME280;11323;49.610;11.016;2023-02-28T03:47:09;99001.94;;;11.51;67.71
22311;BME280;11323;49.610;11.016;2023-02-28T03:52:11;99008.00;;;11.52;67.58
22311;BME280;11323;49.610;11.016;2023-02-28T03:57:17;99007.28;;;11.50;67.88
22311;BME280;11323;49.610;11.016;2023-02-28T04:02:20;99005.63;;;11.49;67.52
22311;BME280;11323;49.610;11.016;2023-02-28T04:07:20;99006.72;;;11.46;68.04
22311;BME280;11323;49.610;11.016;2023-02-28T04:12:21;99009.34;;;11.46;67.96
22311;BME280;11323;49.610;11.016;2023-02-28T04:17:23;99006.97;;;11.43;67.89
22311;BME280;11323;49.610;11.016;2023-02-28T04:22:23;99010.41;;;11.43;67.88
22311;BME280;11323;49.610;11.016;2023-02-28T04:27:27;99002.84;;;11.40;68.17
22311;BME280;11323;49.610;11.016;2023-02-28T04:32:27;98993.03;;;11.33;67.66
22311;BME280;11323;49.610;11.016;2023-02-28T04:37:27;98997.88;;;11.37;68.03
22311;BME280;11323;49.610;11.016;2023-02-28T04:42:29;99005.13;;;11.34;67.73
22311;BME280;11323;49.610;11.016;2023-02-28T04:47:36;99010.34;;;11.34;67.89
22311;BME280;11323;49.610;11.016;2023-02-28T04:52:36;99006.91;;;11.33;68.06
22311;BME280;11323;49.610;11.016;2023-02-28T04:57:36;98999.06;;;11.33;68.17
22311;BME280;11323;49.610;11.016;2023-02-28T05:02:37;99005.38;;;11.31;68.05
22311;BME280;11323;49.610;11.016;2023-02-28T05:07:39;99009.19;;;11.26;68.01
22311;BME280;11323;49.610;11.016;2023-02-28T05:12:40;99005.06;;;11.24;68.10
22311;BME280;11323;49.610;11.016;2023-02-28T05:17:40;99003.53;;;11.21;68.08
22311;BME280;11323;49.610;11.016;2023-02-28T05:22:41;99004.25;;;11.23;67.89
22311;BME280;11323;49.610;11.016;2023-02-28T05:27:42;99015.75;;;11.21;68.22
22311;BME280;11323;49.610;11.016;2023-02-28T05:32:42;99018.25;;;11.22;68.25
22311;BME280;11323;49.610;11.016;2023-02-28T05:37:42;99008.91;;;11.20;68.55
22311;BME280;11323;49.610;11.016;2023-02-28T05:42:43;99022.75;;;11.20;68.19
22311;BME280;11323;49.610;11.016;2023-02-28T05:47:43;99021.47;;;11.15;68.95
22311;BME280;11323;49.610;11.016;2023-02-28T05:52:44;99021.94;;;11.20;68.10
22311;BME280;11323;49.610;11.016;2023-02-28T05:57:44;99011.28;;;11.11;68.36
22311;BME280;11323;49.610;11.016;2023-02-28T06:02:44;99033.00;;;11.12;68.52
22311;BME280;11323;49.610;11.016;2023-02-28T06:07:45;99031.22;;;11.12;68.40
22311;BME280;11323;49.610;11.016;2023-02-28T06:12:46;99038.09;;;11.13;68.17
22311;BME280;11323;49.610;11.016;2023-02-28T06:17:46;99032.28;;;11.10;68.10
22311;BME280;11323;49.610;11.016;2023-02-28T06:22:47;99030.63;;;11.09;68.47
22311;BME280;11323;49.610;11.016;2023-02-28T06:27:47;99029.94;;;11.07;68.55
22311;BME280;11323;49.610;11.016;2023-02-28T06:32:48;99028.53;;;11.03;68.28
22311;BME280;11323;49.610;11.016;2023-02-28T06:37:49;99033.75;;;11.03;68.36
22311;BME280;11323;49.610;11.016;2023-02-28T06:42:50;99034.00;;;11.00;68.14
22311;BME280;11323;49.610;11.016;2023-02-28T06:47:50;99032.34;;;10.99;68.35
22311;BME280;11323;49.610;11.016;2023-02-28T06:52:52;99051.03;;;11.04;68.54
22311;BME280;11323;49.610;11.016;2023-02-28T06:57:54;99054.63;;;11.03;68.52
22311;BME280;11323;49.610;11.016;2023-02-28T07:02:55;99054.63;;;11.03;69.01
22311;BME280;11323;49.610;11.016;2023-02-28T07:07:55;99064.34;;;11.01;68.71
22311;BME280;11323;49.610;11.016;2023-02-28T07:12:57;99063.66;;;10.99;68.62
22311;BME280;11323;49.610;11.016;2023-02-28T07:17:57;99059.50;;;10.96;68.37
22311;BME280;11323;49.610;11.016;2023-02-28T07:22:57;99069.06;;;11.07;68.77
22311;BME280;11323;49.610;11.016;2023-02-28T07:27:58;99071.00;;;10.15;58.85
22311;BME280;11323;49.610;11.016;2023-02-28T07:32:59;99082.41;;;8.96;56.75
22311;BME280;11323;49.610;11.016;2023-02-28T07:38:00;99079.47;;;8.76;57.21
22311;BME280;11323;49.610;11.016;2023-02-28T07:43:01;99078.25;;;9.65;62.19
22311;BME280;11323;49.610;11.016;2023-02-28T07:48:02;99082.00;;;10.19;62.70
22311;BME280;11323;49.610;11.016;2023-02-28T07:53:02;99075.72;;;10.44;62.96
22311;BME280;11323;49.610;11.016;2023-02-28T07:58:03;99083.06;;;10.62;63.28
22311;BME280;11323;49.610;11.016;2023-02-28T08:03:03;99082.19;;;10.73;63.89
22311;BME280;11323;49.610;11.016;2023-02-28T08:08:04;99074.25;;;10.86;64.45
22311;BME280;11323;49.610;11.016;2023-02-28T08:13:04;99073.84;;;11.02;65.07
22311;BME280;11323;49.610;11.016;2023-02-28T08:18:05;99087.09;;;11.10;65.12
22311;BME280;11323;49.610;11.016;2023-02-28T08:23:05;99080.88;;;11.22;65.29
22311;BME280;11323;49.610;11.016;2023-02-28T08:28:06;99068.88;;;11.31;65.69
22311;BME280;11323;49.610;11.016;2023-02-28T08:33:06;99072.03;;;11.35;65.67
22311;BME280;11323;49.610;11.016;2023-02-28T08:38:06;99080.78;;;11.45;65.65
22311;BME280;11323;49.610;11.016;2023-02-28T08:43:07;99069.25;;;11.48;65.82
22311;BME280;11323;49.610;11.016;2023-02-28T08:48:07;99066.81;;;11.56;65.82
22311;BME280;11323;49.610;11.016;2023-02-28T08:53:07;99073.44;;;11.60;65.55
22311;BME280;11323;49.610;11.016;2023-02-28T08:58:08;99062.44;;;11.56;65.70
22311;BME280;11323;49.610;11.016;2023-02-28T09:03:08;99058.91;;;11.67;65.59
22311;BME280;11323;49.610;11.016;2023-02-28T09:08:08;99066.50;;;11.70;65.64
22311;BME280;11323;49.610;11.016;2023-02-28T09:13:09;99057.72;;;11.71;65.63
22311;BME280;11323;49.610;11.016;2023-02-28T09:18:09;99073.56;;;11.80;65.71
22311;BME280;11323;49.610;11.016;2023-02-28T09:23:11;99069.47;;;11.87;66.22
22311;BME280;11323;49.610;11.016;2023-02-28T09:28:12;99075.84;;;11.94;65.98
22311;BME280;11323;49.610;11.016;2023-02-28T09:33:15;99069.03;;;12.03;65.37
22311;BME280;11323;49.610;11.016;2023-02-28T09:38:17;99063.69;;;12.04;65.60
22311;BME280;11323;49.610;11.016;2023-02-28T09:43:20;99076.78;;;12.14;65.42
22311;BME280;11323;49.610;11.016;2023-02-28T09:48:26;99066.06;;;12.17;65.40
22311;BME280;11323;49.610;11.016;2023-02-28T09:53:30;99066.06;;;12.17;65.17
22311;BME280;11323;49.610;11.016;2023-02-28T10:09:23;99081.34;;;12.22;65.62
22311;BME280;11323;49.610;11.016;2023-02-28T10:14:26;99088.81;;;12.27;65.28
22311;BME280;11323;49.610;11.016;2023-02-28T10:24:35;99081.38;;;12.32;65.18
22311;BME280;11323;49.610;11.016;2023-02-28T10:29:40;99068.56;;;12.29;65.08
22311;BME280;11323;49.610;11.016;2023-02-28T10:34:42;99057.44;;;12.27;65.51
22311;BME280;11323;49.610;11.016;2023-02-28T10:39:44;99069.97;;;12.33;65.60
22311;BME280;11323;49.610;11.016;2023-02-28T10:44:48;99057.31;;;12.28;65.51
22311;BME280;11323;49.610;11.016;2023-02-28T10:49:49;99049.06;;;12.33;65.69
22311;BME280;11323;49.610;11.016;2023-02-28T10:55:13;99055.94;;;12.34;65.29
22311;BME280;11323;49.610;11.016;2023-02-28T11:00:24;99050.03;;;12.32;65.11
22311;BME280;11323;49.610;11.016;2023-02-28T11:05:30;99069.44;;;12.39;65.59
22311;BME280;11323;49.610;11.016;2023-02-28T11:10:32;99061.03;;;12.35;65.32
22311;BME280;11323;49.610;11.016;2023-02-28T11:15:35;99052.78;;;12.40;65.67
22311;BME280;11323;49.610;11.016;2023-02-28T11:20:35;99046.19;;;12.46;66.26
22311;BME280;11323;49.610;11.016;2023-02-28T11:25:37;99048.81;;;12.46;66.76
22311;BME280;11323;49.610;11.016;2023-02-28T11:30:40;99048.25;;;12.42;67.00
22311;BME280;11323;49.610;11.016;2023-02-28T11:35:40;99046.78;;;12.49;67.33
22311;BME280;11323;49.610;11.016;2023-02-28T11:51:32;99022.97;;;12.52;68.40
22311;BME280;11323;49.610;11.016;2023-02-28T11:56:37;99042.28;;;12.71;67.84
22311;BME280;11323;49.610;11.016;2023-02-28T12:07:38;99037.72;;;12.73;66.66
22311;BME280;11323;49.610;11.016;2023-02-28T12:12:59;99018.84;;;12.70;66.82
22311;BME280;11323;49.610;11.016;2023-02-28T12:18:33;99033.72;;;12.69;67.45
22311;BME280;11323;49.610;11.016;2023-02-28T12:29:26;99016.38;;;12.88;67.93
22311;BME280;11323;49.610;11.016;2023-02-28T12:34:37;99009.09;;;13.01;67.52
22311;BME280;11323;49.610;11.016;2023-02-28T12:39:43;99013.91;;;13.16;66.65
22311;BME280;11323;49.610;11.016;2023-02-28T12:44:48;99005.09;;;13.07;67.42
22311;BME280;11323;49.610;11.016;2023-02-28T12:50:05;99014.59;;;13.08;68.29
22311;BME280;11323;49.610;11.016;2023-02-28T12:55:17;99010.06;;;13.10;68.93
22311;BME280;11323;49.610;11.016;2023-02-28T13:00:23;99010.06;;;13.10;66.99
22311;BME280;11323;49.610;11.016;2023-02-28T13:05:53;99015.00;;;13.13;66.84
22311;BME280;11323;49.610;11.016;2023-02-28T13:10:56;99012.94;;;13.07;67.99
22311;BME280;11323;49.610;11.016;2023-02-28T13:16:03;99013.50;;;13.10;67.57
22311;BME280;11323;49.610;11.016;2023-02-28T13:21:10;99014.44;;;13.09;68.19
22311;BME280;11323;49.610;11.016;2023-02-28T13:31:31;98997.53;;;13.13;68.17
22311;BME280;11323;49.610;11.016;2023-02-28T13:36:34;99005.09;;;13.17;67.22
22311;BME280;11323;49.610;11.016;2023-02-28T13:46:37;99013.63;;;13.19;66.90
22311;BME280;11323;49.610;11.016;2023-02-28T13:52:13;99006.72;;;13.18;66.78
22311;BME280;11323;49.610;11.016;2023-02-28T14:08:07;98989.25;;;13.28;67.17
22311;BME280;11323;49.610;11.016;2023-02-28T14:13:41;98995.97;;;13.31;67.80
22311;BME280;11323;49.610;11.016;2023-02-28T14:18:51;98991.56;;;13.31;67.29
22311;BME280;11323;49.610;11.016;2023-02-28T14:29:34;98992.97;;;13.16;66.44
22311;BME280;11323;49.610;11.016;2023-02-28T14:35:00;98991.31;;;13.15;65.95
22311;BME280;11323;49.610;11.016;2023-02-28T14:40:03;98986.09;;;13.15;66.20
22311;BME280;11323;49.610;11.016;2023-02-28T14:45:05;98997.91;;;13.28;66.02
22311;BME280;11323;49.610;11.016;2023-02-28T14:50:06;98980.53;;;13.37;66.45
22311;BME280;11323;49.610;11.016;2023-02-28T14:55:17;98981.38;;;13.48;67.49
22311;BME280;11323;49.610;11.016;2023-02-28T15:00:24;98979.13;;;13.53;67.96
22311;BME280;11323;49.610;11.016;2023-02-28T15:05:33;98979.97;;;13.53;68.53
22311;BME280;11323;49.610;11.016;2023-02-28T15:10:34;98958.19;;;13.53;68.36
22311;BME280;11323;49.610;11.016;2023-02-28T15:15:56;98971.84;;;13.56;68.56
22311;BME280;11323;49.610;11.016;2023-02-28T15:21:12;98961.75;;;13.52;68.95
22311;BME280;11323;49.610;11.016;2023-02-28T15:26:16;98976.66;;;13.61;68.64
22311;BME280;11323;49.610;11.016;2023-02-28T15:31:28;98973.34;;;13.59;67.93
22311;BME280;11323;49.610;11.016;2023-02-28T15:36:30;98972.81;;;13.46;66.94
22311;BME280;11323;49.610;11.016;2023-02-28T15:41:37;98975.03;;;13.40;66.63
22311;BME280;11323;49.610;11.016;2023-02-28T15:46:38;98989.94;;;13.40;66.82
22311;BME280;11323;49.610;11.016;2023-02-28T15:51:39;98990.63;;;13.42;66.56
22311;BME280;11323;49.610;11.016;2023-02-28T15:56:50;98988.53;;;13.46;66.49
22311;BME280;11323;49.610;11.016;2023-02-28T16:02:19;98976.41;;;13.44;66.44
22311;BME280;11323;49.610;11.016;2023-02-28T16:07:20;98985.91;;;13.46;66.17
22311;BME280;11323;49.610;11.016;2023-02-28T16:12:25;98990.16;;;13.56;67.18
22311;BME280;11323;49.610;11.016;2023-02-28T16:17:30;98976.22;;;13.56;67.65
22311;BME280;11323;49.610;11.016;2023-02-28T16:22:32;98983.22;;;13.65;67.42
22311;BME280;11323;49.610;11.016;2023-02-28T16:27:36;98994.81;;;13.63;66.71
22311;BME280;11323;49.610;11.016;2023-02-28T16:32:37;99003.13;;;13.58;66.42
22311;BME280;11323;49.610;11.016;2023-02-28T16:37:37;99003.66;;;13.52;65.98
22311;BME280;11323;49.610;11.016;2023-02-28T16:42:38;99006.88;;;13.46;65.87
22311;BME280;11323;49.610;11.016;2023-02-28T16:47:39;99008.09;;;13.41;65.96
22311;BME280;11323;49.610;11.016;2023-02-28T16:52:39;98997.91;;;13.28;66.23
22311;BME280;11323;49.610;11.016;2023-02-28T16:57:40;99025.78;;;13.39;65.88
22311;BME280;11323;49.610;11.016;2023-02-28T17:02:41;99028.38;;;13.39;65.88
22311;BME280;11323;49.610;11.016;2023-02-28T17:07:42;99037.06;;;13.40;66.41
22311;BME280;11323;49.610;11.016;2023-02-28T17:12:42;99042.03;;;13.43;65.78
22311;BME280;11323;49.610;11.016;2023-02-28T17:17:48;99053.31;;;13.43;66.14
22311;BME280;11323;49.610;11.016;2023-02-28T17:22:50;99055.50;;;13.38;65.93
22311;BME280;11323;49.610;11.016;2023-02-28T17:27:50;99065.03;;;13.39;65.73
22311;BME280;11323;49.610;11.016;2023-02-28T17:32:51;99070.66;;;13.44;65.81
22311;BME280;11323;49.610;11.016;2023-02-28T17:37:52;99084.31;;;13.48;66.70
22311;BME280;11323;49.610;11.016;2023-02-28T17:42:52;99059.91;;;13.38;66.94
22311;BME280;11323;49.610;11.016;2023-02-28T17:47:53;99080.88;;;13.48;66.88
22311;BME280;11323;49.610;11.016;2023-02-28T17:52:53;99091.34;;;13.48;67.05
22311;BME280;11323;49.610;11.016;2023-02-28T17:57:53;99080.34;;;13.44;67.20
22311;BME280;11323;49.610;11.016;2023-02-28T18:02:54;99089.13;;;13.53;67.84
22311;BME280;11323;49.610;11.016;2023-02-28T18:07:55;99089.97;;;13.53;68.16
22311;BME280;11323;49.610;11.016;2023-02-28T18:12:56;99100.13;;;13.66;68.17
22311;BME280;11323;49.610;11.016;2023-02-28T18:17:56;99100.94;;;13.77;67.22
22311;BME280;11323;49.610;11.016;2023-02-28T18:22:57;99104.25;;;13.79;68.27
22311;BME280;11323;49.610;11.016;2023-02-28T18:27:57;99095.72;;;13.77;68.03
22311;BME280;11323;49.610;11.016;2023-02-28T18:32:59;99101.63;;;13.79;67.97
22311;BME280;11323;49.610;11.016;2023-02-28T18:38:06;99104.78;;;13.82;68.16
22311;BME280;11323;49.610;11.016;2023-02-28T18:43:07;99108.25;;;13.83;67.67
22311;BME280;11323;49.610;11.016;2023-02-28T18:48:08;99103.00;;;13.83;67.94
22311;BME280;11323;49.610;11.016;2023-02-28T18:53:08;99099.00;;;13.79;67.67
22311;BME280;11323;49.610;11.016;2023-02-28T18:58:09;99108.53;;;13.80;67.32
22311;BME280;11323;49.610;11.016;2023-02-28T19:03:10;99102.88;;;13.74;67.13
22311;BME280;11323;49.610;11.016;2023-02-28T19:08:12;99108.84;;;13.67;66.65
22311;BME280;11323;49.610;11.016;2023-02-28T19:13:12;99107.03;;;13.67;67.05
22311;BME280;11323;49.610;11.016;2023-02-28T19:18:13;99102.75;;;13.66;66.60
22311;BME280;11323;49.610;11.016;2023-02-28T19:23:14;99101.78;;;13.67;66.78
22311;BME280;11323;49.610;11.016;2023-02-28T19:28:14;99099.59;;;13.63;66.76
22311;BME280;11323;49.610;11.016;2023-02-28T19:33:15;99100.72;;;13.60;66.73
22311;BME280;11323;49.610;11.016;2023-02-28T19:38:16;99098.78;;;13.62;66.33
22311;BME280;11323;49.610;11.016;2023-02-28T19:43:16;99099.59;;;13.72;66.83
22311;BME280;11323;49.610;11.016;2023-02-28T19:48:16;99098.63;;;13.73;67.18
22311;BME280;11323;49.610;11.016;2023-02-28T19:53:17;99097.50;;;13.76;67.17
22311;BME280;11323;49.610;11.016;2023-02-28T19:58:18;99096.41;;;13.79;67.01
22311;BME280;11323;49.610;11.016;2023-02-28T20:03:18;99095.72;;;13.77;67.18
22311;BME280;11323;49.610;11.016;2023-02-28T20:08:18;99093.78;;;13.79;67.18
22311;BME280;11323;49.610;11.016;2023-02-28T20:13:19;99090.47;;;13.77;67.31
22311;BME280;11323;49.610;11.016;2023-02-28T20:18:20;99083.84;;;13.82;66.97
22311;BME280;11323;49.610;11.016;2023-02-28T20:23:20;99079.72;;;13.80;66.69
22311;BME280;11323;49.610;11.016;2023-02-28T20:28:20;99063.19;;;13.69;66.91
22311;BME280;11323;49.610;11.016;2023-02-28T20:33:21;99088.09;;;13.83;66.91
22311;BME280;11323;49.610;11.016;2023-02-28T20:38:21;99086.59;;;13.81;66.73
22311;BME280;11323;49.610;11.016;2023-02-28T20:43:22;99074.75;;;13.77;66.77
22311;BME280;11323;49.610;11.016;2023-02-28T20:48:27;99086.88;;;13.78;66.42
22311;BME280;11323;49.610;11.016;2023-02-28T20:53:27;99079.28;;;13.74;67.09
22311;BME280;11323;49.610;11.016;2023-02-28T20:58:31;99083.56;;;13.75;67.02
22311;BME280;11323;49.610;11.016;2023-02-28T21:03:31;99077.66;;;13.73;66.90
22311;BME280;11323;49.610;11.016;2023-02-28T21:08:33;99073.94;;;13.76;67.43
22311;BME280;11323;49.610;11.016;2023-02-28T21:13:35;99070.09;;;13.70;66.72
22311;BME280;11323;49.610;11.016;2023-02-28T21:18:36;99083.88;;;13.72;67.08
22311;BME280;11323;49.610;11.016;2023-02-28T21:23:36;99072.88;;;13.59;67.45
22311;BME280;11323;49.610;11.016;2023-02-28T21:28:37;99080.56;;;13.61;67.44
22311;BME280;11323;49.610;11.016;2023-02-28T21:33:43;99085.69;;;13.62;67.25
22311;BME280;11323;49.610;11.016;2023-02-28T21:38:45;99093.00;;;13.49;64.35
22311;BME280;11323;49.610;11.016;2023-02-28T21:43:46;99093.69;;;13.41;63.94
22311;BME280;11323;49.610;11.016;2023-02-28T21:48:47;99068.59;;;13.19;63.89
22311;BME280;11323;49.610;11.016;2023-02-28T21:53:48;99083.06;;;13.23;64.07
22311;BME280;11323;49.610;11.016;2023-02-28T21:58:49;99088.56;;;13.20;64.34
22311;BME280;11323;49.610;11.016;2023-02-28T22:03:51;99081.97;;;13.16;64.08
22311;BME280;11323;49.610;11.016;2023-02-28T22:08:55;99079.75;;;13.01;64.60
22311;BME280;11323;49.610;11.016;2023-02-28T22:13:57;99091.59;;;12.95;64.56
22311;BME280;11323;49.610;11.016;2023-02-28T22:18:58;99092.97;;;12.90;65.05
22311;BME280;11323;49.610;11.016;2023-02-28T22:23:58;99085.78;;;12.82;64.81
22311;BME280;11323;49.610;11.016;2023-02-28T22:28:59;99089.09;;;12.84;65.30
22311;BME280;11323;49.610;11.016;2023-02-28T22:34:03;99084.97;;;12.81;65.03
22311;BME280;11323;49.610;11.016;2023-02-28T22:39:05;99085.09;;;12.80;64.98
22311;BME280;11323;49.610;11.016;2023-02-28T22:44:05;99083.31;;;12.80;64.63
22311;BME280;11323;49.610;11.016;2023-02-28T22:49:06;99077.78;;;12.74;64.62
22311;BME280;11323;49.610;11.016;2023-02-28T22:54:08;99078.59;;;12.74;65.01
22311;BME280;11323;49.610;11.016;2023-02-28T22:59:11;99075.84;;;12.66;64.93
22311;BME280;11323;49.610;11.016;2023-02-28T23:04:12;99075.84;;;12.66;64.72
22311;BME280;11323;49.610;11.016;2023-02-28T23:09:15;99076.53;;;12.68;64.56
22311;BME280;11323;49.610;11.016;2023-02-28T23:14:20;99083.00;;;12.64;64.90
22311;BME280;11323;49.610;11.016;2023-02-28T23:19:24;99075.00;;;12.56;65.09
22311;BME280;11323;49.610;11.016;2023-02-28T23:24:28;99079.97;;;12.59;64.92
22311;BME280;11323;49.610;11.016;2023-02-28T23:29:29;99075.53;;;12.49;64.94
22311;BME280;11323;49.610;11.016;2023-02-28T23:34:29;99089.03;;;12.55;64.57
22311;BME280;11323;49.610;11.016;2023-02-28T23:39:31;99098.09;;;12.50;64.97
22311;BME280;11323;49.610;11.016;2023-02-28T23:44:31;99101.41;;;12.52;65.03
22311;BME280;11323;49.610;11.016;2023-02-28T23:49:32;99091.47;;;12.46;64.90
22311;BME280;11323;49.610;11.016;2023-02-28T23:54:33;99083.75;;;12.35;65.08
22311;BME280;11323;49.610;11.016;2023-02-28T23:59:34;99090.63;;;12.36;64.83
